sensor_id;sensor_type;location;lat;lon;timestamp;pressure;altitude;pressure_sealevel;temperature;humidity
18813;BME280;9534;51.140;6.296;2022-11-21T00:02:29;99546.81;;;7.21;100.00
18813;BME280;9534;51.140;6.296;2022-11-21T00:06:32;99541.56;;;7.19;100.00
18813;BME280;9534;51.140;6.296;2022-11-21T00:10:36;99536.97;;;7.20;100.00
18813;BME280;9534;51.140;6.296;2022-11-21T00:14:40;99544.28;;;7.19;100.00
18813;BME280;9534;51.140;6.296;2022-11-21T00:18:44;99553.72;;;7.17;100.00
18813;BME280;9534;51.140;6.296;2022-11-21T00:22:47;99542.00;;;7.16;100.00
18813;BME280;9534;51.140;6.296;2022-11-21T00:26:50;99557.69;;;7.14;100.00
18813;BME280;9534;51.140;6.296;2022-11-21T00:30:53;99546.81;;;7.14;100.00
18813;BME280;9534;51.140;6.296;2022-11-21T00:34:58;99548.72;;;7.14;100.00
18813;BME280;9534;51.140;6.296;2022-11-21T00:39:01;99550.81;;;7.05;100.00
18813;BME280;9534;51.140;6.296;2022-11-21T00:43:04;99567.34;;;6.97;100.00
18813;BME280;9534;51.140;6.296;2022-11-21T00:47:07;99561.09;;;6.90;100.00
18813;BME280;9534;51.140;6.296;2022-11-21T00:51:11;99567.84;;;6.81;100.00
18813;BME280;9534;51.140;6.296;2022-11-21T00:55:14;99553.19;;;6.76;100.00
18813;BME280;9534;51.140;6.296;2022-11-21T00:59:18;99551.13;;;6.71;100.00
18813;BME280;9534;51.140;6.296;2022-11-21T01:03:21;99544.00;;;6.70;100.00
18813;BME280;9534;51.140;6.296;2022-11-21T01:07:25;99548.59;;;6.70;100.00
18813;BME280;9534;51.140;6.296;2022-11-21T01:11:29;99544.44;;;6.67;100.00
18813;BME280;9534;51.140;6.296;2022-11-21T01:15:32;99549.06;;;6.60;100.00
18813;BME280;9534;51.140;6.296;2022-11-21T01:19:35;99560.75;;;6.54;100.00
18813;BME280;9534;51.140;6.296;2022-11-21T01:23:40;99540.50;;;6.50;100.00
18813;BME280;9534;51.140;6.296;2022-11-21T01:27:43;99545.28;;;6.48;100.00
18813;BME280;9534;51.140;6.296;2022-11-21T01:31:46;99562.03;;;6.39;100.00
18813;BME280;9534;51.140;6.296;2022-11-21T01:35:50;99565.78;;;6.31;100.00
18813;BME280;9534;51.140;6.296;2022-11-21T01:39:55;99562.84;;;6.26;100.00
18813;BME280;9534;51.140;6.296;2022-11-21T01:43:58;99566.63;;;6.25;100.00
18813;BME280;9534;51.140;6.296;2022-11-21T01:48:01;99559.09;;;6.27;100.00
18813;BME280;9534;51.140;6.296;2022-11-21T01:52:07;99571.22;;;6.31;100.00
18813;BME280;9534;51.140;6.296;2022-11-21T01:56:14;99560.34;;;6.31;100.00
18813;BME280;9534;51.140;6.296;2022-11-21T02:00:20;99554.91;;;6.31;100.00
18813;BME280;9534;51.140;6.296;2022-11-21T02:04:27;99560.75;;;6.28;100.00
18813;BME280;9534;51.140;6.296;2022-11-21T02:08:32;99561.00;;;6.27;100.00
18813;BME280;9534;51.140;6.296;2022-11-21T02:12:42;99562.88;;;6.20;100.00
18813;BME280;9534;51.140;6.296;2022-11-21T02:16:47;99570.16;;;6.07;100.00
18813;BME280;9534;51.140;6.296;2022-11-21T02:20:55;99568.91;;;6.03;100.00
18813;BME280;9534;51.140;6.296;2022-11-21T02:25:05;99557.63;;;5.93;100.00
18813;BME280;9534;51.140;6.296;2022-11-21T02:29:08;99554.44;;;5.83;100.00
18813;BME280;9534;51.140;6.296;2022-11-21T02:33:12;99557.75;;;5.72;100.00
18813;BME280;9534;51.140;6.296;2022-11-21T02:37:16;99554.00;;;5.73;100.00
18813;BME280;9534;51.140;6.296;2022-11-21T02:41:22;99556.09;;;5.71;100.00
18813;BME280;9534;51.140;6.296;2022-11-21T02:45:32;99567.34;;;5.68;100.00
18813;BME280;9534;51.140;6.296;2022-11-21T02:49:39;99570.88;;;5.55;100.00
18813;BME280;9534;51.140;6.296;2022-11-21T02:53:44;99573.16;;;5.52;100.00
18813;BME280;9534;51.140;6.296;2022-11-21T02:57:48;99570.66;;;5.57;100.00
18813;BME280;9534;51.140;6.296;2022-11-21T03:01:51;99570.88;;;5.62;100.00
18813;BME280;9534;51.140;6.296;2022-11-21T03:05:55;99573.63;;;5.75;100.00
18813;BME280;9534;51.140;6.296;2022-11-21T03:09:58;99574.03;;;5.78;100.00
18813;BME280;9534;51.140;6.296;2022-11-21T03:14:02;99560.69;;;5.83;100.00
18813;BME280;9534;51.140;6.296;2022-11-21T03:18:05;99580.53;;;5.84;100.00
18813;BME280;9534;51.140;6.296;2022-11-21T03:22:09;99575.75;;;5.86;100.00
18813;BME280;9534;51.140;6.296;2022-11-21T03:26:12;99570.50;;;5.84;100.00
18813;BME280;9534;51.140;6.296;2022-11-21T03:30:17;99568.28;;;5.88;100.00
18813;BME280;9534;51.140;6.296;2022-11-21T03:34:20;99562.84;;;5.94;100.00
18813;BME280;9534;51.140;6.296;2022-11-21T03:38:23;99568.50;;;5.93;100.00
18813;BME280;9534;51.140;6.296;2022-11-21T03:42:26;99565.38;;;5.96;100.00
18813;BME280;9534;51.140;6.296;2022-11-21T03:46:32;99562.41;;;5.97;100.00
18813;BME280;9534;51.140;6.296;2022-11-21T03:50:36;99564.50;;;5.95;100.00
18813;BME280;9534;51.140;6.296;2022-11-21T03:54:39;99572.88;;;5.94;100.00
18813;BME280;9534;51.140;6.296;2022-11-21T03:58:42;99573.69;;;5.88;100.00
18813;BME280;9534;51.140;6.296;2022-11-21T04:02:47;99562.38;;;5.84;100.00
18813;BME280;9534;51.140;6.296;2022-11-21T04:06:50;99566.13;;;5.77;100.00
18813;BME280;9534;51.140;6.296;2022-11-21T04:10:54;99572.19;;;5.79;100.00
18813;BME280;9534;51.140;6.296;2022-11-21T04:14:57;99575.38;;;5.89;100.00
18813;BME280;9534;51.140;6.296;2022-11-21T04:19:01;99565.56;;;5.94;100.00
18813;BME280;9534;51.140;6.296;2022-11-21T04:23:05;99573.72;;;6.01;100.00
18813;BME280;9534;51.140;6.296;2022-11-21T04:27:08;99575.41;;;6.02;100.00
18813;BME280;9534;51.140;6.296;2022-11-21T04:31:11;99574.13;;;6.04;100.00
18813;BME280;9534;51.140;6.296;2022-11-21T04:35:16;99583.72;;;6.07;100.00
18813;BME280;9534;51.140;6.296;2022-11-21T04:39:19;99570.78;;;6.09;100.00
18813;BME280;9534;51.140;6.296;2022-11-21T04:43:22;99572.88;;;6.07;100.00
18813;BME280;9534;51.140;6.296;2022-11-21T04:47:25;99572.44;;;6.10;100.00
18813;BME280;9534;51.140;6.296;2022-11-21T04:51:30;99563.25;;;6.11;100.00
18813;BME280;9534;51.140;6.296;2022-11-21T04:55:33;99557.19;;;6.09;100.00
18813;BME280;9534;51.140;6.296;2022-11-21T04:59:36;99562.44;;;6.10;100.00
18813;BME280;9534;51.140;6.296;2022-11-21T05:03:39;99565.56;;;6.07;100.00
18813;BME280;9534;51.140;6.296;2022-11-21T05:07:43;99554.47;;;6.09;100.00
18813;BME280;9534;51.140;6.296;2022-11-21T05:11:46;99554.06;;;6.05;100.00
18813;BME280;9534;51.140;6.296;2022-11-21T05:16:07;99546.97;;;6.04;100.00
18813;BME280;9534;51.140;6.296;2022-11-21T05:20:10;99551.59;;;6.04;100.00
18813;BME280;9534;51.140;6.296;2022-11-21T05:24:15;99551.59;;;6.04;100.00
18813;BME280;9534;51.140;6.296;2022-11-21T05:28:19;99546.16;;;6.04;100.00
18813;BME280;9534;51.140;6.296;2022-11-21T05:32:25;99545.31;;;6.03;100.00
18813;BME280;9534;51.140;6.296;2022-11-21T05:36:31;99536.75;;;6.00;100.00
18813;BME280;9534;51.140;6.296;2022-11-21T05:40:37;99534.22;;;5.98;100.00
18813;BME280;9534;51.140;6.296;2022-11-21T05:44:40;99535.50;;;5.96;100.00
18813;BME280;9534;51.140;6.296;2022-11-21T05:48:44;99539.44;;;5.93;100.00
18813;BME280;9534;51.140;6.296;2022-11-21T05:52:47;99542.78;;;5.95;100.00
18813;BME280;9534;51.140;6.296;2022-11-21T05:56:52;99543.41;;;5.97;100.00
18813;BME280;9534;51.140;6.296;2022-11-21T06:00:55;99539.88;;;5.97;100.00
18813;BME280;9534;51.140;6.296;2022-11-21T06:05:00;99538.22;;;5.96;100.00
18813;BME280;9534;51.140;6.296;2022-11-21T06:09:03;99532.38;;;5.99;100.00
18813;BME280;9534;51.140;6.296;2022-11-21T06:13:08;99529.03;;;5.97;100.00
18813;BME280;9534;51.140;6.296;2022-11-21T06:17:23;99526.94;;;5.99;100.00
18813;BME280;9534;51.140;6.296;2022-11-21T06:21:27;99525.25;;;5.98;100.00
18813;BME280;9534;51.140;6.296;2022-11-21T06:25:30;99526.09;;;5.98;100.00
18813;BME280;9534;51.140;6.296;2022-11-21T06:29:35;99529.66;;;5.99;100.00
18813;BME280;9534;51.140;6.296;2022-11-21T06:33:40;99516.50;;;5.96;100.00
18813;BME280;9534;51.140;6.296;2022-11-21T06:37:43;99508.53;;;5.94;100.00
18813;BME280;9534;51.140;6.296;2022-11-21T06:41:53;99508.94;;;5.91;100.00
18813;BME280;9534;51.140;6.296;2022-11-21T06:45:58;99514.38;;;5.91;100.00
18813;BME280;9534;51.140;6.296;2022-11-21T06:50:04;99511.03;;;5.89;100.00
18813;BME280;9534;51.140;6.296;2022-11-21T06:54:07;99517.25;;;5.77;100.00
18813;BME280;9534;51.140;6.296;2022-11-21T06:58:17;99506.59;;;5.69;100.00
18813;BME280;9534;51.140;6.296;2022-11-21T07:02:21;99509.91;;;5.58;100.00
18813;BME280;9534;51.140;6.296;2022-11-21T07:06:25;99511.00;;;5.70;100.00
18813;BME280;9534;51.140;6.296;2022-11-21T07:10:29;99505.16;;;5.73;100.00
18813;BME280;9534;51.140;6.296;2022-11-21T07:14:32;99507.44;;;5.76;100.00
18813;BME280;9534;51.140;6.296;2022-11-21T07:18:36;99503.69;;;5.77;100.00
18813;BME280;9534;51.140;6.296;2022-11-21T07:22:39;99508.06;;;5.84;100.00
18813;BME280;9534;51.140;6.296;2022-11-21T07:26:43;99510.38;;;5.87;100.00
18813;BME280;9534;51.140;6.296;2022-11-21T07:30:46;99500.19;;;5.89;100.00
18813;BME280;9534;51.140;6.296;2022-11-21T07:34:50;99502.28;;;5.94;100.00
18813;BME280;9534;51.140;6.296;2022-11-21T07:38:54;99509.16;;;5.96;100.00
18813;BME280;9534;51.140;6.296;2022-11-21T07:43:00;99494.34;;;5.99;100.00
18813;BME280;9534;51.140;6.296;2022-11-21T07:47:11;99483.69;;;6.04;100.00
18813;BME280;9534;51.140;6.296;2022-11-21T07:51:15;99490.97;;;6.10;100.00
18813;BME280;9534;51.140;6.296;2022-11-21T07:55:18;99491.00;;;6.16;100.00
18813;BME280;9534;51.140;6.296;2022-11-21T07:59:21;99488.91;;;6.18;100.00
18813;BME280;9534;51.140;6.296;2022-11-21T08:03:25;99487.00;;;6.18;100.00
18813;BME280;9534;51.140;6.296;2022-11-21T08:07:29;99486.19;;;6.18;100.00
18813;BME280;9534;51.140;6.296;2022-11-21T08:11:34;99486.38;;;6.16;100.00
18813;BME280;9534;51.140;6.296;2022-11-21T08:15:37;99472.59;;;6.18;100.00
18813;BME280;9534;51.140;6.296;2022-11-21T08:19:41;99479.50;;;6.20;100.00
18813;BME280;9534;51.140;6.296;2022-11-21T08:23:45;99485.75;;;6.27;100.00
18813;BME280;9534;51.140;6.296;2022-11-21T08:27:48;99480.09;;;6.42;100.00
18813;BME280;9534;51.140;6.296;2022-11-21T08:31:52;99483.22;;;6.45;100.00
18813;BME280;9534;51.140;6.296;2022-11-21T08:35:55;99481.31;;;6.52;100.00
18813;BME280;9534;51.140;6.296;2022-11-21T08:39:59;99469.16;;;6.74;100.00
18813;BME280;9534;51.140;6.296;2022-11-21T08:44:04;99467.41;;;7.30;100.00
18813;BME280;9534;51.140;6.296;2022-11-21T08:48:14;99457.78;;;8.14;100.00
18813;BME280;9534;51.140;6.296;2022-11-21T08:52:17;99440.94;;;8.48;100.00
18813;BME280;9534;51.140;6.296;2022-11-21T08:56:21;99424.78;;;8.04;100.00
18813;BME280;9534;51.140;6.296;2022-11-21T09:00:25;99404.59;;;8.54;100.00
18813;BME280;9534;51.140;6.296;2022-11-21T09:04:28;99390.78;;;8.84;100.00
18813;BME280;9534;51.140;6.296;2022-11-21T09:08:32;99381.28;;;8.58;100.00
18813;BME280;9534;51.140;6.296;2022-11-21T09:12:37;99384.13;;;8.27;100.00
18813;BME280;9534;51.140;6.296;2022-11-21T09:16:40;99384.91;;;8.52;100.00
18813;BME280;9534;51.140;6.296;2022-11-21T09:21:03;99374.72;;;8.76;100.00
18813;BME280;9534;51.140;6.296;2022-11-21T09:25:06;99369.66;;;8.62;100.00
18813;BME280;9534;51.140;6.296;2022-11-21T09:29:11;99372.63;;;8.43;100.00
18813;BME280;9534;51.140;6.296;2022-11-21T09:33:16;99362.03;;;8.35;100.00
18813;BME280;9534;51.140;6.296;2022-11-21T09:37:19;99360.97;;;8.54;100.00
18813;BME280;9534;51.140;6.296;2022-11-21T09:41:27;99357.56;;;8.58;100.00
18813;BME280;9534;51.140;6.296;2022-11-21T09:45:57;99344.44;;;9.25;100.00
18813;BME280;9534;51.140;6.296;2022-11-21T09:50:20;99332.66;;;9.77;100.00
18813;BME280;9534;51.140;6.296;2022-11-21T09:54:30;99331.69;;;9.49;100.00
18813;BME280;9534;51.140;6.296;2022-11-21T09:58:38;99327.50;;;9.35;100.00
18813;BME280;9534;51.140;6.296;2022-11-21T10:02:44;99323.66;;;10.22;100.00
18813;BME280;9534;51.140;6.296;2022-11-21T10:06:54;99304.69;;;10.44;100.00
18813;BME280;9534;51.140;6.296;2022-11-21T10:11:07;99305.91;;;9.33;100.00
18813;BME280;9534;51.140;6.296;2022-11-21T10:15:30;99302.59;;;10.00;100.00
18813;BME280;9534;51.140;6.296;2022-11-21T10:19:47;99297.47;;;9.46;100.00
18813;BME280;9534;51.140;6.296;2022-11-21T10:24:05;99293.34;;;9.78;100.00
18813;BME280;9534;51.140;6.296;2022-11-21T10:28:18;99295.13;;;10.30;100.00
18813;BME280;9534;51.140;6.296;2022-11-21T10:32:26;99275.66;;;10.15;100.00
18813;BME280;9534;51.140;6.296;2022-11-21T10:36:35;99265.59;;;10.32;100.00
18813;BME280;9534;51.140;6.296;2022-11-21T10:40:43;99259.50;;;9.56;100.00
18813;BME280;9534;51.140;6.296;2022-11-21T10:44:48;99258.78;;;9.95;100.00
18813;BME280;9534;51.140;6.296;2022-11-21T10:49:11;99256.25;;;10.56;100.00
18813;BME280;9534;51.140;6.296;2022-11-21T10:53:19;99238.13;;;10.94;100.00
18813;BME280;9534;51.140;6.296;2022-11-21T10:57:44;99220.00;;;11.70;100.00
18813;BME280;9534;51.140;6.296;2022-11-21T11:01:54;99215.38;;;11.92;100.00
18813;BME280;9534;51.140;6.296;2022-11-21T11:05:57;99207.38;;;11.20;100.00
18813;BME280;9534;51.140;6.296;2022-11-21T11:10:15;99194.09;;;11.99;100.00
18813;BME280;9534;51.140;6.296;2022-11-21T11:14:30;99184.75;;;12.96;100.00
18813;BME280;9534;51.140;6.296;2022-11-21T11:18:36;99180.88;;;11.25;100.00
18813;BME280;9534;51.140;6.296;2022-11-21T11:22:41;99184.81;;;10.97;100.00
18813;BME280;9534;51.140;6.296;2022-11-21T11:26:51;99173.91;;;11.51;100.00
18813;BME280;9534;51.140;6.296;2022-11-21T11:30:57;99170.59;;;11.65;100.00
18813;BME280;9534;51.140;6.296;2022-11-21T11:35:05;99162.94;;;11.67;100.00
18813;BME280;9534;51.140;6.296;2022-11-21T11:39:17;99147.50;;;11.99;100.00
18813;BME280;9534;51.140;6.296;2022-11-21T11:43:29;99139.16;;;11.18;100.00
18813;BME280;9534;51.140;6.296;2022-11-21T11:47:55;99132.13;;;11.98;100.00
18813;BME280;9534;51.140;6.296;2022-11-21T11:52:01;99131.41;;;11.48;100.00
18813;BME280;9534;51.140;6.296;2022-11-21T11:56:07;99113.91;;;11.11;100.00
18813;BME280;9534;51.140;6.296;2022-11-21T12:00:24;99116.34;;;11.29;100.00
18813;BME280;9534;51.140;6.296;2022-11-21T12:04:32;99093.75;;;10.85;100.00
18813;BME280;9534;51.140;6.296;2022-11-21T12:08:45;99087.53;;;10.73;100.00
18813;BME280;9534;51.140;6.296;2022-11-21T12:12:55;99081.59;;;10.31;100.00
18813;BME280;9534;51.140;6.296;2022-11-21T12:17:04;99075.09;;;9.93;100.00
18813;BME280;9534;51.140;6.296;2022-11-21T12:21:11;99072.06;;;9.78;100.00
18813;BME280;9534;51.140;6.296;2022-11-21T12:25:15;99068.19;;;9.23;100.00
18813;BME280;9534;51.140;6.296;2022-11-21T12:29:29;99055.53;;;9.45;100.00
18813;BME280;9534;51.140;6.296;2022-11-21T12:33:40;99052.22;;;10.38;100.00
18813;BME280;9534;51.140;6.296;2022-11-21T12:37:57;99044.41;;;10.47;100.00
18813;BME280;9534;51.140;6.296;2022-11-21T12:42:10;99045.50;;;10.46;100.00
18813;BME280;9534;51.140;6.296;2022-11-21T12:46:41;99034.13;;;10.54;100.00
18813;BME280;9534;51.140;6.296;2022-11-21T12:50:55;99032.97;;;10.17;100.00
18813;BME280;9534;51.140;6.296;2022-11-21T12:55:35;99010.22;;;10.00;100.00
18813;BME280;9534;51.140;6.296;2022-11-21T13:00:01;99006.06;;;9.97;100.00
18813;BME280;9534;51.140;6.296;2022-11-21T13:04:08;98991.09;;;9.72;100.00
18813;BME280;9534;51.140;6.296;2022-11-21T13:08:19;98987.09;;;10.07;100.00
18813;BME280;9534;51.140;6.296;2022-11-21T13:12:31;98977.81;;;9.76;100.00
18813;BME280;9534;51.140;6.296;2022-11-21T13:16:38;98971.59;;;9.80;100.00
18813;BME280;9534;51.140;6.296;2022-11-21T13:20:50;98954.34;;;9.63;100.00
18813;BME280;9534;51.140;6.296;2022-11-21T13:24:56;98958.41;;;9.61;100.00
18813;BME280;9534;51.140;6.296;2022-11-21T16:09:40;98676.28;;;7.66;100.00
18813;BME280;9534;51.140;6.296;2022-11-21T16:13:49;98661.59;;;7.67;100.00
18813;BME280;9534;51.140;6.296;2022-11-21T16:17:52;98648.94;;;7.61;100.00
18813;BME280;9534;51.140;6.296;2022-11-21T16:21:56;98642.81;;;7.54;100.00
18813;BME280;9534;51.140;6.296;2022-11-21T16:26:01;98624.59;;;7.55;100.00
18813;BME280;9534;51.140;6.296;2022-11-21T16:30:05;98607.19;;;7.56;100.00
18813;BME280;9534;51.140;6.296;2022-11-21T16:34:10;98597.75;;;7.47;100.00
18813;BME280;9534;51.140;6.296;2022-11-21T16:38:14;98599.88;;;7.45;100.00
18813;BME280;9534;51.140;6.296;2022-11-21T16:42:19;98617.97;;;7.51;100.00
18813;BME280;9534;51.140;6.296;2022-11-21T16:46:23;98614.53;;;7.55;100.00
18813;BME280;9534;51.140;6.296;2022-11-21T16:50:27;98610.41;;;7.53;100.00
18813;BME280;9534;51.140;6.296;2022-11-21T16:54:30;98603.63;;;7.55;100.00
18813;BME280;9534;51.140;6.296;2022-11-21T16:58:36;98606.63;;;7.54;100.00
18813;BME280;9534;51.140;6.296;2022-11-21T17:02:41;98607.09;;;7.51;100.00
18813;BME280;9534;51.140;6.296;2022-11-21T17:06:45;98595.25;;;7.57;100.00
18813;BME280;9534;51.140;6.296;2022-11-21T17:10:49;98578.91;;;7.57;100.00
18813;BME280;9534;51.140;6.296;2022-11-21T17:14:54;98565.91;;;7.59;100.00
18813;BME280;9534;51.140;6.296;2022-11-21T17:18:59;98564.72;;;7.55;100.00
18813;BME280;9534;51.140;6.296;2022-11-21T17:23:03;98552.19;;;7.54;100.00
18813;BME280;9534;51.140;6.296;2022-11-21T17:27:06;98554.31;;;7.52;100.00
18813;BME280;9534;51.140;6.296;2022-11-21T17:31:12;98559.66;;;7.47;100.00
18813;BME280;9534;51.140;6.296;2022-11-21T17:35:16;98549.84;;;7.46;100.00
18813;BME280;9534;51.140;6.296;2022-11-21T17:39:19;98553.53;;;7.40;100.00
18813;BME280;9534;51.140;6.296;2022-11-21T17:43:30;98535.91;;;7.31;100.00
18813;BME280;9534;51.140;6.296;2022-11-21T17:47:36;98535.81;;;7.26;100.00
18813;BME280;9534;51.140;6.296;2022-11-21T17:51:39;98525.88;;;7.20;100.00
18813;BME280;9534;51.140;6.296;2022-11-21T17:55:42;98522.00;;;7.16;100.00
18813;BME280;9534;51.140;6.296;2022-11-21T17:59:45;98531.69;;;7.12;100.00
18813;BME280;9534;51.140;6.296;2022-11-21T18:03:54;98567.53;;;7.21;100.00
18813;BME280;9534;51.140;6.296;2022-11-21T18:07:58;98568.22;;;7.28;100.00
18813;BME280;9534;51.140;6.296;2022-11-21T18:12:01;98561.47;;;7.30;100.00
18813;BME280;9534;51.140;6.296;2022-11-21T18:16:06;98529.53;;;7.37;100.00
18813;BME280;9534;51.140;6.296;2022-11-21T18:20:11;98522.44;;;7.36;100.00
18813;BME280;9534;51.140;6.296;2022-11-21T18:24:14;98510.38;;;7.32;100.00
18813;BME280;9534;51.140;6.296;2022-11-21T18:28:17;98508.81;;;7.36;100.00
18813;BME280;9534;51.140;6.296;2022-11-21T18:32:20;98505.13;;;7.42;100.00
18813;BME280;9534;51.140;6.296;2022-11-21T18:36:26;98496.97;;;7.42;100.00
18813;BME280;9534;51.140;6.296;2022-11-21T18:40:29;98490.69;;;7.41;100.00
18813;BME280;9534;51.140;6.296;2022-11-21T18:44:32;98495.91;;;7.43;100.00
18813;BME280;9534;51.140;6.296;2022-11-21T18:48:36;98494.25;;;7.42;100.00
18813;BME280;9534;51.140;6.296;2022-11-21T18:53:01;98498.03;;;7.41;100.00
18813;BME280;9534;51.140;6.296;2022-11-21T18:57:04;98485.84;;;7.43;100.00
18813;BME280;9534;51.140;6.296;2022-11-21T19:01:10;98478.41;;;7.39;100.00
18813;BME280;9534;51.140;6.296;2022-11-21T19:05:18;98465.41;;;7.41;100.00
18813;BME280;9534;51.140;6.296;2022-11-21T19:09:22;98449.66;;;7.43;100.00
18813;BME280;9534;51.140;6.296;2022-11-21T19:13:33;98444.78;;;7.45;100.00
18813;BME280;9534;51.140;6.296;2022-11-21T19:17:36;98442.31;;;7.43;100.00
18813;BME280;9534;51.140;6.296;2022-11-21T19:21:39;98420.03;;;7.46;100.00
18813;BME280;9534;51.140;6.296;2022-11-21T19:25:43;98430.44;;;7.49;100.00
18813;BME280;9534;51.140;6.296;2022-11-21T19:29:47;98417.09;;;7.48;100.00
18813;BME280;9534;51.140;6.296;2022-11-21T19:33:54;98427.44;;;7.34;100.00
18813;BME280;9534;51.140;6.296;2022-11-21T19:37:57;98434.47;;;7.19;100.00
18813;BME280;9534;51.140;6.296;2022-11-21T19:42:03;98430.16;;;7.07;100.00
18813;BME280;9534;51.140;6.296;2022-11-21T19:46:06;98413.28;;;6.93;100.00
18813;BME280;9534;51.140;6.296;2022-11-21T19:50:11;98423.03;;;6.89;100.00
18813;BME280;9534;51.140;6.296;2022-11-21T19:54:15;98409.91;;;6.86;100.00
18813;BME280;9534;51.140;6.296;2022-11-21T19:58:19;98401.97;;;6.85;100.00
18813;BME280;9534;51.140;6.296;2022-11-21T20:02:23;98395.16;;;6.82;100.00
18813;BME280;9534;51.140;6.296;2022-11-21T20:06:27;98395.97;;;6.83;100.00
18813;BME280;9534;51.140;6.296;2022-11-21T20:10:31;98376.59;;;6.79;100.00
18813;BME280;9534;51.140;6.296;2022-11-21T20:14:36;98377.88;;;6.77;100.00
18813;BME280;9534;51.140;6.296;2022-11-21T20:18:39;98371.06;;;6.74;100.00
18813;BME280;9534;51.140;6.296;2022-11-21T20:22:42;98361.84;;;6.75;100.00
18813;BME280;9534;51.140;6.296;2022-11-21T20:26:45;98348.47;;;6.74;100.00
18813;BME280;9534;51.140;6.296;2022-11-21T20:30:50;98346.13;;;6.77;100.00
18813;BME280;9534;51.140;6.296;2022-11-21T20:34:53;98349.66;;;6.78;100.00
18813;BME280;9534;51.140;6.296;2022-11-21T20:38:59;98350.13;;;6.75;100.00
18813;BME280;9534;51.140;6.296;2022-11-21T20:43:03;98352.25;;;6.73;100.00
18813;BME280;9534;51.140;6.296;2022-11-21T20:47:08;98346.50;;;6.69;100.00
18813;BME280;9534;51.140;6.296;2022-11-21T20:51:11;98342.06;;;6.80;100.00
18813;BME280;9534;51.140;6.296;2022-11-21T20:55:35;98349.31;;;6.74;100.00
18813;BME280;9534;51.140;6.296;2022-11-21T20:59:38;98344.56;;;6.81;100.00
18813;BME280;9534;51.140;6.296;2022-11-21T21:03:42;98326.13;;;6.83;100.00
18813;BME280;9534;51.140;6.296;2022-11-21T21:07:45;98338.41;;;6.86;100.00
18813;BME280;9534;51.140;6.296;2022-11-21T21:11:48;98328.94;;;6.88;100.00
18813;BME280;9534;51.140;6.296;2022-11-21T21:15:54;98326.78;;;6.90;100.00
18813;BME280;9534;51.140;6.296;2022-11-21T21:19:58;98316.50;;;6.92;100.00
18813;BME280;9534;51.140;6.296;2022-11-21T21:24:03;98311.50;;;7.01;100.00
18813;BME280;9534;51.140;6.296;2022-11-21T21:28:06;98301.44;;;7.01;100.00
18813;BME280;9534;51.140;6.296;2022-11-21T21:32:10;98297.16;;;7.05;100.00
18813;BME280;9534;51.140;6.296;2022-11-21T21:36:16;98292.56;;;7.06;100.00
18813;BME280;9534;51.140;6.296;2022-11-21T21:40:20;98289.59;;;7.07;100.00
18813;BME280;9534;51.140;6.296;2022-11-21T21:44:23;98285.00;;;7.08;100.00
18813;BME280;9534;51.140;6.296;2022-11-21T21:48:33;98276.00;;;7.07;100.00
18813;BME280;9534;51.140;6.296;2022-11-21T21:52:38;98275.75;;;7.09;100.00
18813;BME280;9534;51.140;6.296;2022-11-21T21:56:41;98274.91;;;7.08;100.00
18813;BME280;9534;51.140;6.296;2022-11-21T22:00:44;98282.00;;;7.09;100.00
18813;BME280;9534;51.140;6.296;2022-11-21T22:04:47;98280.34;;;7.08;100.00
18813;BME280;9534;51.140;6.296;2022-11-21T22:08:55;98275.41;;;7.05;100.00
18813;BME280;9534;51.140;6.296;2022-11-21T22:12:58;98273.75;;;7.04;100.00
18813;BME280;9534;51.140;6.296;2022-11-21T22:17:01;98282.19;;;7.03;100.00
18813;BME280;9534;51.140;6.296;2022-11-21T22:21:11;98268.31;;;7.04;100.00
18813;BME280;9534;51.140;6.296;2022-11-21T22:25:16;98253.00;;;6.98;100.00
18813;BME280;9534;51.140;6.296;2022-11-21T22:29:19;98249.19;;;6.99;100.00
18813;BME280;9534;51.140;6.296;2022-11-21T22:33:22;98241.63;;;7.01;100.00
18813;BME280;9534;51.140;6.296;2022-11-21T22:37:26;98236.19;;;7.01;100.00
18813;BME280;9534;51.140;6.296;2022-11-21T22:41:30;98243.09;;;6.92;100.00
18813;BME280;9534;51.140;6.296;2022-11-21T22:45:33;98246.97;;;6.96;100.00
18813;BME280;9534;51.140;6.296;2022-11-21T22:49:36;98249.88;;;6.90;100.00
18813;BME280;9534;51.140;6.296;2022-11-21T22:53:39;98243.63;;;6.89;100.00
18813;BME280;9534;51.140;6.296;2022-11-21T22:57:44;98249.06;;;6.89;100.00
18813;BME280;9534;51.140;6.296;2022-11-21T23:01:47;98260.41;;;6.86;100.00
18813;BME280;9534;51.140;6.296;2022-11-21T23:05:57;98264.19;;;6.85;100.00
18813;BME280;9534;51.140;6.296;2022-11-21T23:10:00;98257.13;;;6.84;100.00
18813;BME280;9534;51.140;6.296;2022-11-21T23:14:04;98259.25;;;6.82;100.00
18813;BME280;9534;51.140;6.296;2022-11-21T23:18:08;98258.09;;;6.78;100.00
18813;BME280;9534;51.140;6.296;2022-11-21T23:22:11;98262.34;;;6.74;100.00
18813;BME280;9534;51.140;6.296;2022-11-21T23:26:15;98256.44;;;6.77;100.00
18813;BME280;9534;51.140;6.296;2022-11-21T23:30:19;98255.28;;;6.73;100.00
18813;BME280;9534;51.140;6.296;2022-11-21T23:34:23;98264.50;;;6.72;100.00
18813;BME280;9534;51.140;6.296;2022-11-21T23:38:26;98264.72;;;6.71;100.00
18813;BME280;9534;51.140;6.296;2022-11-21T23:42:29;98256.81;;;6.69;100.00
18813;BME280;9534;51.140;6.296;2022-11-21T23:46:33;98264.41;;;6.67;100.00
18813;BME280;9534;51.140;6.296;2022-11-21T23:50:36;98268.75;;;6.68;100.00
18813;BME280;9534;51.140;6.296;2022-11-21T23:54:39;98277.50;;;6.70;100.00
18813;BME280;9534;51.140;6.296;2022-11-21T23:58:43;98275.34;;;6.72;100.00
